Latest Weather Observations for Melville Water

IDW60801

Issued at 1:04 am WST Sunday 22 October 2017 (issued every 30 minutes, with the page automatically refreshed every 10 minutes)

About weather observations | Map of weather stations | Latest weather observations for WA | Other Formats
Station Details ID: 009091 Name: INNER DOLPHIN PYLON Lat: -31.99 Lon: 115.83 Height: 0.0 m
Data from the previous 72 hours. | See also: Recent months at Melville Water
Date/Time
WST
Temp
°C
App
Temp
°C
Dew
Point
°C
Rel
Hum
%
Delta-T
°C
Wind Press
QNH
hPa
Press
MSL
hPa
Rain since
9am
mm
Dir  Spd
km/h
Gust
km/h
Spd
kts
Gust
kts
22/01:00am - - - - - E 32 43 17 23 - - -
22/12:30am - - - - - ENE 33 46 18 25 - - -
22/12:00am - - - - - ENE 35 50 19 27 - - -
 
Date/Time
WST
Temp
°C
App
Temp
°C
Dew
Point
°C
Rel
Hum
%
Delta-T
°C
Wind Press
QNH
hPa
Press
MSL
hPa
Rain since
9am
mm
Dir  Spd
km/h
Gust
km/h
Spd
kts
Gust
kts
21/11:30pm - - - - - ENE 41 61 22 33 - - -
21/11:13pm - - - - - ENE 46 65 25 35 - - -
21/11:00pm - - - - - NE 50 67 27 36 - - -
21/10:53pm - - - - - NE 39 57 21 31 - - -
21/10:30pm - - - - - NE 28 37 15 20 - - -
21/10:00pm - - - - - ENE 32 39 17 21 - - -
21/09:30pm - - - - - NE 22 33 12 18 - - -
21/09:17pm - - - - - NE 39 52 21 28 - - -
21/09:00pm - - - - - NNE 32 52 17 28 - - -
21/08:59pm - - - - - NNE 33 52 18 28 - - -
21/08:53pm - - - - - NE 33 52 18 28 - - -
21/08:30pm - - - - - ENE 32 35 17 19 - - -
21/08:00pm - - - - - ENE 20 28 11 15 - - -
21/07:30pm - - - - - NE 6 11 3 6 - - -
21/07:00pm - - - - - ENE 17 24 9 13 - - -
21/06:30pm - - - - - ESE 7 11 4 6 - - -
21/06:00pm - - - - - E 9 17 5 9 - - -
21/05:30pm - - - - - ENE 19 26 10 14 - - -
21/05:00pm - - - - - ENE 28 37 15 20 - - -
21/04:30pm - - - - - ENE 24 32 13 17 - - -
21/04:00pm - - - - - ENE 24 37 13 20 - - -
21/03:30pm - - - - - ENE 22 33 12 18 - - -
21/03:00pm - - - - - ENE 19 24 10 13 - - -
21/02:30pm - - - - - ENE 20 28 11 15 - - -
21/02:00pm - - - - - ENE 20 33 11 18 - - -
21/01:30pm - - - - - ENE 26 33 14 18 - - -
21/01:00pm - - - - - ENE 33 46 18 25 - - -
21/12:30pm - - - - - ENE 32 43 17 23 - - -
21/12:00pm - - - - - ENE 33 44 18 24 - - -
21/11:30am - - - - - ENE 30 39 16 21 - - -
21/11:00am - - - - - ENE 32 43 17 23 - - -
21/10:30am - - - - - E 26 35 14 19 - - -
21/10:00am - - - - - ENE 28 41 15 22 - - -
21/09:30am - - - - - ENE 35 48 19 26 - - -
21/09:00am - - - - - NE 35 46 19 25 - - -
21/08:30am - - - - - ENE 37 46 20 25 - - -
21/08:19am - - - - - ENE 28 46 15 25 - - -
21/08:00am - - - - - ENE 26 35 14 19 - - -
21/07:30am - - - - - ENE 20 24 11 13 - - -
21/07:00am - - - - - ENE 24 35 13 19 - - -
21/06:30am - - - - - E 19 24 10 13 - - -
21/06:00am - - - - - ENE 24 32 13 17 - - -
21/05:30am - - - - - ENE 24 30 13 16 - - -
21/05:00am - - - - - E 19 26 10 14 - - -
21/04:30am - - - - - ESE 19 22 10 12 - - -
21/04:00am - - - - - E 19 20 10 11 - - -
21/03:30am - - - - - ESE 17 24 9 13 - - -
21/03:00am - - - - - E 20 32 11 17 - - -
21/02:30am - - - - - E 20 32 11 17 - - -
21/02:00am - - - - - ESE 13 15 7 8 - - -
21/01:30am - - - - - ESE 17 20 9 11 - - -
21/01:00am - - - - - ESE 20 28 11 15 - - -
21/12:30am - - - - - ESE 24 30 13 16 - - -
21/12:00am - - - - - ESE 28 41 15 22 - - -
 
Date/Time
WST
Temp
°C
App
Temp
°C
Dew
Point
°C
Rel
Hum
%
Delta-T
°C
Wind Press
QNH
hPa
Press
MSL
hPa
Rain since
9am
mm
Dir  Spd
km/h
Gust
km/h
Spd
kts
Gust
kts
20/11:30pm - - - - - ESE 17 26 9 14 - - -
20/11:00pm - - - - - SW 2 6 1 3 - - -
20/10:30pm - - - - - ESE 4 6 2 3 - - -
20/10:00pm - - - - - SSE 4 6 2 3 - - -
20/09:30pm - - - - - NE 4 4 2 2 - - -
20/09:00pm - - - - - ENE 2 4 1 2 - - -
20/08:30pm - - - - - SE 13 15 7 8 - - -
20/08:00pm - - - - - SE 13 13 7 7 - - -
20/07:30pm - - - - - SE 13 15 7 8 - - -
20/07:00pm - - - - - SE 11 11 6 6 - - -
20/06:30pm - - - - - ESE 11 13 6 7 - - -
20/06:00pm - - - - - E 15 19 8 10 - - -
20/05:30pm - - - - - ESE 19 24 10 13 - - -
20/05:00pm - - - - - E 19 26 10 14 - - -
20/04:30pm - - - - - E 11 19 6 10 - - -
20/04:00pm - - - - - E 9 15 5 8 - - -
20/03:30pm - - - - - SSE 9 24 5 13 - - -
20/03:00pm - - - - - E 17 28 9 15 - - -
20/02:30pm - - - - - ENE 7 13 4 7 - - -
20/02:00pm - - - - - E 17 24 9 13 - - -
20/01:30pm - - - - - E 20 32 11 17 - - -
20/01:00pm - - - - - E 26 35 14 19 - - -
20/12:30pm - - - - - E 20 30 11 16 - - -
20/12:00pm - - - - - NE 19 26 10 14 - - -
20/11:30am - - - - - NE 20 28 11 15 - - -
20/11:00am - - - - - NE 22 28 12 15 - - -
20/10:30am - - - - - ENE 35 43 19 23 - - -
20/10:00am - - - - - ENE 30 39 16 21 - - -
20/09:30am - - - - - ENE 28 41 15 22 - - -
20/09:00am - - - - - ENE 28 33 15 18 - - -
20/08:30am - - - - - ENE 35 46 19 25 - - -
20/08:00am - - - - - ENE 35 46 19 25 - - -
20/07:30am - - - - - ENE 30 41 16 22 - - -
20/07:00am - - - - - ENE 26 35 14 19 - - -
20/06:30am - - - - - ENE 24 33 13 18 - - -
20/06:00am - - - - - ENE 20 28 11 15 - - -
20/05:30am - - - - - ENE 19 26 10 14 - - -
20/05:00am - - - - - ENE 17 20 9 11 - - -
20/04:30am - - - - - ENE 20 32 11 17 - - -
20/04:00am - - - - - ENE 24 32 13 17 - - -
20/03:30am - - - - - E 28 37 15 20 - - -
20/03:00am - - - - - E 24 32 13 17 - - -
20/02:30am - - - - - E 22 30 12 16 - - -
20/02:00am - - - - - E 20 28 11 15 - - -
20/01:30am - - - - - E 20 28 11 15 - - -
20/01:00am - - - - - E 26 32 14 17 - - -
20/12:30am - - - - - ESE 28 37 15 20 - - -
20/12:12am - - - - - ESE 20 39 11 21 - - -
20/12:00am - - - - - SSE 9 15 5 8 - - -
 
Date/Time
WST
Temp
°C
App
Temp
°C
Dew
Point
°C
Rel
Hum
%
Delta-T
°C
Wind Press
QNH
hPa
Press
MSL
hPa
Rain since
9am
mm
Dir  Spd
km/h
Gust
km/h
Spd
kts
Gust
kts
19/11:30pm - - - - - SE 11 13 6 7 - - -
19/11:00pm - - - - - SE 9 11 5 6 - - -
19/10:30pm - - - - - SE 11 15 6 8 - - -
19/10:00pm - - - - - SE 15 19 8 10 - - -
19/09:30pm - - - - - SE 17 20 9 11 - - -
19/09:00pm - - - - - SE 17 20 9 11 - - -
19/08:30pm - - - - - SSE 13 19 7 10 - - -
19/08:00pm - - - - - SSW 13 17 7 9 - - -
19/07:30pm - - - - - SSW 17 20 9 11 - - -
19/07:00pm - - - - - SSW 19 22 10 12 - - -
19/06:30pm - - - - - SW 20 24 11 13 - - -
19/06:00pm - - - - - SW 22 26 12 14 - - -
19/05:30pm - - - - - SW 15 30 8 16 - - -
19/05:00pm - - - - - NE 15 22 8 12 - - -
19/04:30pm - - - - - ENE 11 17 6 9 - - -
19/04:00pm - - - - - E 9 17 5 9 - - -
19/03:30pm - - - - - ESE 13 24 7 13 - - -
19/03:00pm - - - - - NE 15 22 8 12 - - -
19/02:30pm - - - - - ENE 13 19 7 10 - - -
19/02:00pm - - - - - E 15 24 8 13 - - -
19/01:30pm - - - - - E 17 24 9 13 - - -
19/01:00pm - - - - - ENE 20 32 11 17 - - -
19/12:30pm - - - - - E 20 33 11 18 - - -
19/12:00pm - - - - - E 24 33 13 18 - - -
19/11:30am - - - - - E 26 35 14 19 - - -
19/11:00am - - - - - E 20 33 11 18 - - -
19/10:30am - - - - - E 24 30 13 16 - - -
19/10:00am - - - - - ESE 20 26 11 14 - - -
19/09:30am - - - - - E 20 32 11 17 - - -
19/09:00am - - - - - E 22 33 12 18 - - -
19/08:30am - - - - - E 24 35 13 19 - - -
19/08:00am - - - - - E 20 28 11 15 - - -
19/07:30am - - - - - ESE 19 28 10 15 - - -
19/07:00am - - - - - ESE 22 32 12 17 - - -
19/06:30am - - - - - ESE 11 17 6 9 - - -
19/06:00am - - - - - SE 7 13 4 7 - - -
19/05:30am - - - - - SE 13 17 7 9 - - -
19/05:00am - - - - - SE 15 20 8 11 - - -
19/04:30am - - - - - SSE 9 13 5 7 - - -
19/04:00am - - - - - SE 11 15 6 8 - - -
19/03:30am - - - - - SE 13 17 7 9 - - -
19/03:00am - - - - - SSE 15 19 8 10 - - -
19/02:30am - - - - - SSE 15 19 8 10 - - -
19/02:00am - - - - - SSE 17 20 9 11 - - -
19/01:30am - - - - - SSE 17 22 9 12 - - -

Other Formats:

Comma delimited format used in spreadsheet applications
http://www.bom.gov.au/fwo/IDW60801/IDW60801.95620.axf

JavaScript Object Notation format (JSON) in row-major order
http://www.bom.gov.au/fwo/IDW60801/IDW60801.95620.json